sensor_id;sensor_type;location;lat;lon;timestamp;P1;durP1;ratioP1;P2;durP2;ratioP2
31910;SDS011;18457;52.432;16.914;2023-05-21T00:01:27;32.00;;;24.10;;
31910;SDS011;18457;52.432;16.914;2023-05-21T00:04:00;32.20;;;24.20;;
31910;SDS011;18457;52.432;16.914;2023-05-21T00:06:34;32.80;;;24.20;;
31910;SDS011;18457;52.432;16.914;2023-05-21T00:09:06;34.20;;;24.60;;
31910;SDS011;18457;52.432;16.914;2023-05-21T00:11:38;33.70;;;23.70;;
31910;SDS011;18457;52.432;16.914;2023-05-21T00:14:10;31.70;;;25.00;;
31910;SDS011;18457;52.432;16.914;2023-05-21T00:16:42;36.90;;;24.80;;
31910;SDS011;18457;52.432;16.914;2023-05-21T00:19:15;31.90;;;23.50;;
31910;SDS011;18457;52.432;16.914;2023-05-21T00:21:50;30.60;;;23.00;;
31910;SDS011;18457;52.432;16.914;2023-05-21T00:24:22;31.70;;;23.50;;
31910;SDS011;18457;52.432;16.914;2023-05-21T00:26:54;36.30;;;23.30;;
31910;SDS011;18457;52.432;16.914;2023-05-21T00:29:26;33.30;;;23.50;;
31910;SDS011;18457;52.432;16.914;2023-05-21T00:31:58;27.40;;;21.40;;
31910;SDS011;18457;52.432;16.914;2023-05-21T00:34:31;31.90;;;23.00;;
31910;SDS011;18457;52.432;16.914;2023-05-21T00:37:03;37.90;;;22.60;;
31910;SDS011;18457;52.432;16.914;2023-05-21T00:39:38;36.60;;;24.70;;
31910;SDS011;18457;52.432;16.914;2023-05-21T00:42:09;32.40;;;22.90;;
31910;SDS011;18457;52.432;16.914;2023-05-21T00:44:46;36.50;;;23.00;;
31910;SDS011;18457;52.432;16.914;2023-05-21T00:47:18;34.30;;;24.10;;
31910;SDS011;18457;52.432;16.914;2023-05-21T00:49:50;35.60;;;22.20;;
31910;SDS011;18457;52.432;16.914;2023-05-21T00:52:22;33.30;;;24.10;;
31910;SDS011;18457;52.432;16.914;2023-05-21T00:57:25;29.80;;;23.60;;
31910;SDS011;18457;52.432;16.914;2023-05-21T00:59:57;32.80;;;23.30;;
31910;SDS011;18457;52.432;16.914;2023-05-21T01:02:29;32.10;;;23.70;;
31910;SDS011;18457;52.432;16.914;2023-05-21T01:05:03;33.60;;;24.20;;
31910;SDS011;18457;52.432;16.914;2023-05-21T01:10:10;31.80;;;23.50;;
31910;SDS011;18457;52.432;16.914;2023-05-21T01:12:42;31.00;;;25.30;;
31910;SDS011;18457;52.432;16.914;2023-05-21T01:15:16;31.90;;;23.20;;
31910;SDS011;18457;52.432;16.914;2023-05-21T01:17:49;34.20;;;23.80;;
31910;SDS011;18457;52.432;16.914;2023-05-21T01:20:22;31.80;;;24.20;;
31910;SDS011;18457;52.432;16.914;2023-05-21T01:22:55;36.20;;;24.00;;
31910;SDS011;18457;52.432;16.914;2023-05-21T01:25:27;29.40;;;23.00;;
31910;SDS011;18457;52.432;16.914;2023-05-21T01:27:59;38.40;;;25.40;;
31910;SDS011;18457;52.432;16.914;2023-05-21T01:30:31;38.40;;;24.70;;
31910;SDS011;18457;52.432;16.914;2023-05-21T01:33:05;40.60;;;24.50;;
31910;SDS011;18457;52.432;16.914;2023-05-21T01:35:44;38.20;;;25.20;;
31910;SDS011;18457;52.432;16.914;2023-05-21T01:38:23;36.10;;;23.60;;
31910;SDS011;18457;52.432;16.914;2023-05-21T01:40:59;34.60;;;23.80;;
31910;SDS011;18457;52.432;16.914;2023-05-21T01:43:35;38.90;;;25.00;;
31910;SDS011;18457;52.432;16.914;2023-05-21T01:46:11;37.30;;;26.50;;
31910;SDS011;18457;52.432;16.914;2023-05-21T01:48:46;38.00;;;25.70;;
31910;SDS011;18457;52.432;16.914;2023-05-21T01:51:21;33.30;;;24.20;;
31910;SDS011;18457;52.432;16.914;2023-05-21T01:53:54;33.50;;;23.70;;
31910;SDS011;18457;52.432;16.914;2023-05-21T01:56:26;32.70;;;25.20;;
31910;SDS011;18457;52.432;16.914;2023-05-21T01:59:01;36.00;;;26.40;;
31910;SDS011;18457;52.432;16.914;2023-05-21T02:01:34;36.70;;;26.20;;
31910;SDS011;18457;52.432;16.914;2023-05-21T02:04:07;35.90;;;24.70;;
31910;SDS011;18457;52.432;16.914;2023-05-21T02:06:40;37.90;;;26.40;;
31910;SDS011;18457;52.432;16.914;2023-05-21T02:09:12;35.50;;;26.10;;
31910;SDS011;18457;52.432;16.914;2023-05-21T02:11:45;42.20;;;26.40;;
31910;SDS011;18457;52.432;16.914;2023-05-21T02:14:18;41.90;;;26.20;;
31910;SDS011;18457;52.432;16.914;2023-05-21T02:16:50;35.20;;;25.00;;
31910;SDS011;18457;52.432;16.914;2023-05-21T02:19:21;34.80;;;25.10;;
31910;SDS011;18457;52.432;16.914;2023-05-21T02:21:54;40.10;;;26.00;;
31910;SDS011;18457;52.432;16.914;2023-05-21T02:24:25;35.20;;;25.30;;
31910;SDS011;18457;52.432;16.914;2023-05-21T02:26:57;40.30;;;25.50;;
31910;SDS011;18457;52.432;16.914;2023-05-21T02:29:29;37.50;;;26.00;;
31910;SDS011;18457;52.432;16.914;2023-05-21T02:32:01;34.60;;;26.60;;
31910;SDS011;18457;52.432;16.914;2023-05-21T02:34:33;35.10;;;25.40;;
31910;SDS011;18457;52.432;16.914;2023-05-21T02:37:10;36.30;;;25.10;;
31910;SDS011;18457;52.432;16.914;2023-05-21T02:39:41;33.90;;;24.90;;
31910;SDS011;18457;52.432;16.914;2023-05-21T02:42:14;36.60;;;25.80;;
31910;SDS011;18457;52.432;16.914;2023-05-21T02:44:45;38.60;;;25.60;;
31910;SDS011;18457;52.432;16.914;2023-05-21T02:47:18;35.10;;;24.60;;
31910;SDS011;18457;52.432;16.914;2023-05-21T02:49:51;32.60;;;25.30;;
31910;SDS011;18457;52.432;16.914;2023-05-21T02:52:24;41.10;;;26.50;;
31910;SDS011;18457;52.432;16.914;2023-05-21T02:54:57;38.20;;;25.70;;
31910;SDS011;18457;52.432;16.914;2023-05-21T02:57:28;40.30;;;27.00;;
31910;SDS011;18457;52.432;16.914;2023-05-21T03:00:00;39.10;;;26.30;;
31910;SDS011;18457;52.432;16.914;2023-05-21T03:02:34;36.20;;;26.60;;
31910;SDS011;18457;52.432;16.914;2023-05-21T03:05:06;36.10;;;26.70;;
31910;SDS011;18457;52.432;16.914;2023-05-21T03:07:38;38.90;;;25.60;;
31910;SDS011;18457;52.432;16.914;2023-05-21T03:10:11;37.00;;;25.60;;
31910;SDS011;18457;52.432;16.914;2023-05-21T03:12:43;34.40;;;25.50;;
31910;SDS011;18457;52.432;16.914;2023-05-21T03:15:15;38.00;;;26.40;;
31910;SDS011;18457;52.432;16.914;2023-05-21T03:17:51;39.10;;;27.50;;
31910;SDS011;18457;52.432;16.914;2023-05-21T03:20:24;35.80;;;25.40;;
31910;SDS011;18457;52.432;16.914;2023-05-21T03:22:56;39.70;;;24.80;;
31910;SDS011;18457;52.432;16.914;2023-05-21T03:25:32;37.70;;;25.20;;
31910;SDS011;18457;52.432;16.914;2023-05-21T03:30:45;36.30;;;23.70;;
31910;SDS011;18457;52.432;16.914;2023-05-21T03:33:35;36.00;;;24.00;;
31910;SDS011;18457;52.432;16.914;2023-05-21T03:38:49;41.80;;;24.20;;
31910;SDS011;18457;52.432;16.914;2023-05-21T03:41:21;35.10;;;23.60;;
31910;SDS011;18457;52.432;16.914;2023-05-21T03:43:58;31.20;;;23.10;;
31910;SDS011;18457;52.432;16.914;2023-05-21T03:46:34;39.00;;;24.10;;
31910;SDS011;18457;52.432;16.914;2023-05-21T03:49:10;33.70;;;23.40;;
31910;SDS011;18457;52.432;16.914;2023-05-21T03:51:42;35.90;;;23.40;;
31910;SDS011;18457;52.432;16.914;2023-05-21T03:54:16;30.60;;;22.30;;
31910;SDS011;18457;52.432;16.914;2023-05-21T03:56:48;29.20;;;20.90;;
31910;SDS011;18457;52.432;16.914;2023-05-21T03:59:20;28.50;;;21.40;;
31910;SDS011;18457;52.432;16.914;2023-05-21T04:01:52;32.70;;;22.80;;
31910;SDS011;18457;52.432;16.914;2023-05-21T04:04:24;27.10;;;19.70;;
31910;SDS011;18457;52.432;16.914;2023-05-21T04:06:57;28.30;;;19.90;;
31910;SDS011;18457;52.432;16.914;2023-05-21T04:09:29;27.80;;;19.20;;
31910;SDS011;18457;52.432;16.914;2023-05-21T04:12:04;27.90;;;20.00;;
31910;SDS011;18457;52.432;16.914;2023-05-21T04:14:38;26.70;;;17.90;;
31910;SDS011;18457;52.432;16.914;2023-05-21T04:17:12;26.60;;;18.10;;
31910;SDS011;18457;52.432;16.914;2023-05-21T04:19:45;32.70;;;20.10;;
31910;SDS011;18457;52.432;16.914;2023-05-21T04:22:17;34.30;;;18.10;;
31910;SDS011;18457;52.432;16.914;2023-05-21T04:24:49;25.60;;;17.70;;
31910;SDS011;18457;52.432;16.914;2023-05-21T04:27:27;26.10;;;17.80;;
31910;SDS011;18457;52.432;16.914;2023-05-21T04:29:59;25.00;;;17.20;;
31910;SDS011;18457;52.432;16.914;2023-05-21T04:32:32;26.40;;;18.00;;
31910;SDS011;18457;52.432;16.914;2023-05-21T04:35:05;25.20;;;17.20;;
31910;SDS011;18457;52.432;16.914;2023-05-21T04:37:38;22.70;;;16.40;;
31910;SDS011;18457;52.432;16.914;2023-05-21T04:40:11;20.60;;;15.10;;
31910;SDS011;18457;52.432;16.914;2023-05-21T04:42:46;23.10;;;16.20;;
31910;SDS011;18457;52.432;16.914;2023-05-21T04:45:19;24.30;;;14.90;;
31910;SDS011;18457;52.432;16.914;2023-05-21T04:47:53;22.20;;;15.90;;
31910;SDS011;18457;52.432;16.914;2023-05-21T04:50:28;23.00;;;16.20;;
31910;SDS011;18457;52.432;16.914;2023-05-21T04:53:01;21.20;;;14.40;;
31910;SDS011;18457;52.432;16.914;2023-05-21T04:55:34;25.50;;;15.50;;
31910;SDS011;18457;52.432;16.914;2023-05-21T04:58:07;22.30;;;14.50;;
31910;SDS011;18457;52.432;16.914;2023-05-21T05:00:39;19.80;;;13.90;;
31910;SDS011;18457;52.432;16.914;2023-05-21T05:03:14;19.40;;;14.00;;
31910;SDS011;18457;52.432;16.914;2023-05-21T05:05:46;20.10;;;13.70;;
31910;SDS011;18457;52.432;16.914;2023-05-21T05:08:21;25.00;;;13.30;;
31910;SDS011;18457;52.432;16.914;2023-05-21T05:10:53;16.80;;;13.10;;
31910;SDS011;18457;52.432;16.914;2023-05-21T05:13:25;22.60;;;14.40;;
31910;SDS011;18457;52.432;16.914;2023-05-21T05:15:56;18.70;;;13.80;;
31910;SDS011;18457;52.432;16.914;2023-05-21T05:21:01;18.80;;;12.70;;
31910;SDS011;18457;52.432;16.914;2023-05-21T05:23:32;19.00;;;12.40;;
31910;SDS011;18457;52.432;16.914;2023-05-21T05:26:04;20.90;;;12.90;;
31910;SDS011;18457;52.432;16.914;2023-05-21T05:28:36;18.70;;;12.60;;
31910;SDS011;18457;52.432;16.914;2023-05-21T05:31:08;17.70;;;13.00;;
31910;SDS011;18457;52.432;16.914;2023-05-21T05:33:40;16.90;;;12.10;;
31910;SDS011;18457;52.432;16.914;2023-05-21T05:36:12;15.10;;;12.10;;
31910;SDS011;18457;52.432;16.914;2023-05-21T05:41:15;15.20;;;11.90;;
31910;SDS011;18457;52.432;16.914;2023-05-21T05:46:18;15.10;;;10.90;;
31910;SDS011;18457;52.432;16.914;2023-05-21T05:48:52;16.00;;;11.10;;
31910;SDS011;18457;52.432;16.914;2023-05-21T05:51:24;16.40;;;10.70;;
31910;SDS011;18457;52.432;16.914;2023-05-21T05:53:56;14.70;;;10.60;;
31910;SDS011;18457;52.432;16.914;2023-05-21T05:56:28;18.80;;;11.50;;
31910;SDS011;18457;52.432;16.914;2023-05-21T05:59:00;14.10;;;10.20;;
31910;SDS011;18457;52.432;16.914;2023-05-21T06:01:32;15.90;;;10.80;;
31910;SDS011;18457;52.432;16.914;2023-05-21T06:04:04;13.20;;;10.50;;
31910;SDS011;18457;52.432;16.914;2023-05-21T06:06:37;14.40;;;10.50;;
31910;SDS011;18457;52.432;16.914;2023-05-21T06:09:10;16.60;;;10.50;;
31910;SDS011;18457;52.432;16.914;2023-05-21T06:11:42;14.00;;;10.50;;
31910;SDS011;18457;52.432;16.914;2023-05-21T06:14:14;16.30;;;10.60;;
31910;SDS011;18457;52.432;16.914;2023-05-21T06:16:46;14.30;;;10.40;;
31910;SDS011;18457;52.432;16.914;2023-05-21T06:19:18;15.70;;;10.60;;
31910;SDS011;18457;52.432;16.914;2023-05-21T06:21:50;16.10;;;9.40;;
31910;SDS011;18457;52.432;16.914;2023-05-21T06:24:22;14.80;;;9.00;;
31910;SDS011;18457;52.432;16.914;2023-05-21T06:26:55;16.50;;;9.90;;
31910;SDS011;18457;52.432;16.914;2023-05-21T06:29:27;13.60;;;9.10;;
31910;SDS011;18457;52.432;16.914;2023-05-21T06:32:01;12.10;;;9.40;;
31910;SDS011;18457;52.432;16.914;2023-05-21T06:34:34;14.80;;;9.50;;
31910;SDS011;18457;52.432;16.914;2023-05-21T06:37:06;13.30;;;8.00;;
31910;SDS011;18457;52.432;16.914;2023-05-21T06:39:39;14.50;;;8.50;;
31910;SDS011;18457;52.432;16.914;2023-05-21T06:42:10;11.50;;;8.90;;
31910;SDS011;18457;52.432;16.914;2023-05-21T06:44:55;10.10;;;8.60;;
31910;SDS011;18457;52.432;16.914;2023-05-21T06:47:30;9.80;;;7.90;;
31910;SDS011;18457;52.432;16.914;2023-05-21T06:50:03;13.90;;;8.50;;
31910;SDS011;18457;52.432;16.914;2023-05-21T06:55:06;10.90;;;8.20;;
31910;SDS011;18457;52.432;16.914;2023-05-21T06:58:05;12.30;;;7.50;;
31910;SDS011;18457;52.432;16.914;2023-05-21T07:00:37;10.00;;;7.60;;
31910;SDS011;18457;52.432;16.914;2023-05-21T07:03:09;16.40;;;7.70;;
31910;SDS011;18457;52.432;16.914;2023-05-21T07:05:42;12.60;;;7.60;;
31910;SDS011;18457;52.432;16.914;2023-05-21T07:08:14;9.70;;;7.00;;
31910;SDS011;18457;52.432;16.914;2023-05-21T07:10:49;12.60;;;7.40;;
31910;SDS011;18457;52.432;16.914;2023-05-21T07:13:20;9.80;;;7.30;;
31910;SDS011;18457;52.432;16.914;2023-05-21T07:15:53;9.60;;;7.30;;
31910;SDS011;18457;52.432;16.914;2023-05-21T07:18:26;7.50;;;6.50;;
31910;SDS011;18457;52.432;16.914;2023-05-21T07:20:58;9.10;;;7.10;;
31910;SDS011;18457;52.432;16.914;2023-05-21T07:23:30;9.80;;;6.80;;
31910;SDS011;18457;52.432;16.914;2023-05-21T07:26:02;8.00;;;6.90;;
31910;SDS011;18457;52.432;16.914;2023-05-21T07:28:34;9.50;;;6.40;;
31910;SDS011;18457;52.432;16.914;2023-05-21T07:31:06;10.10;;;6.80;;
31910;SDS011;18457;52.432;16.914;2023-05-21T07:33:43;14.20;;;7.00;;
31910;SDS011;18457;52.432;16.914;2023-05-21T07:36:16;20.10;;;7.40;;
31910;SDS011;18457;52.432;16.914;2023-05-21T07:38:48;15.00;;;7.80;;
31910;SDS011;18457;52.432;16.914;2023-05-21T07:41:21;13.30;;;6.80;;
31910;SDS011;18457;52.432;16.914;2023-05-21T07:43:52;23.10;;;7.30;;
31910;SDS011;18457;52.432;16.914;2023-05-21T07:46:24;11.50;;;6.10;;
31910;SDS011;18457;52.432;16.914;2023-05-21T07:48:57;10.30;;;6.90;;
31910;SDS011;18457;52.432;16.914;2023-05-21T07:51:29;7.50;;;5.90;;
31910;SDS011;18457;52.432;16.914;2023-05-21T07:54:02;7.80;;;6.40;;
31910;SDS011;18457;52.432;16.914;2023-05-21T07:56:35;9.10;;;7.00;;
31910;SDS011;18457;52.432;16.914;2023-05-21T07:59:08;10.90;;;5.90;;
31910;SDS011;18457;52.432;16.914;2023-05-21T08:01:42;6.70;;;5.70;;
31910;SDS011;18457;52.432;16.914;2023-05-21T08:04:14;12.60;;;6.50;;
31910;SDS011;18457;52.432;16.914;2023-05-21T08:06:47;6.90;;;5.60;;
31910;SDS011;18457;52.432;16.914;2023-05-21T08:09:19;7.10;;;6.00;;
31910;SDS011;18457;52.432;16.914;2023-05-21T08:11:51;8.40;;;5.60;;
31910;SDS011;18457;52.432;16.914;2023-05-21T08:16:54;6.80;;;5.50;;
31910;SDS011;18457;52.432;16.914;2023-05-21T08:19:26;6.80;;;4.60;;
31910;SDS011;18457;52.432;16.914;2023-05-21T08:21:59;9.10;;;5.70;;
31910;SDS011;18457;52.432;16.914;2023-05-21T08:24:32;9.30;;;5.90;;
31910;SDS011;18457;52.432;16.914;2023-05-21T08:27:04;10.30;;;7.50;;
31910;SDS011;18457;52.432;16.914;2023-05-21T08:29:36;6.40;;;5.30;;
31910;SDS011;18457;52.432;16.914;2023-05-21T08:32:10;12.40;;;4.50;;
31910;SDS011;18457;52.432;16.914;2023-05-21T08:34:41;10.10;;;5.00;;
31910;SDS011;18457;52.432;16.914;2023-05-21T08:40:01;6.60;;;4.40;;
31910;SDS011;18457;52.432;16.914;2023-05-21T08:42:41;10.40;;;5.30;;
31910;SDS011;18457;52.432;16.914;2023-05-21T08:45:33;7.10;;;4.50;;
31910;SDS011;18457;52.432;16.914;2023-05-21T08:48:10;10.10;;;4.20;;
31910;SDS011;18457;52.432;16.914;2023-05-21T08:50:45;9.30;;;4.20;;
31910;SDS011;18457;52.432;16.914;2023-05-21T08:53:22;8.70;;;4.30;;
31910;SDS011;18457;52.432;16.914;2023-05-21T08:55:58;11.90;;;4.70;;
31910;SDS011;18457;52.432;16.914;2023-05-21T08:58:39;5.80;;;4.50;;
31910;SDS011;18457;52.432;16.914;2023-05-21T09:01:16;8.60;;;4.70;;
31910;SDS011;18457;52.432;16.914;2023-05-21T09:03:56;10.80;;;5.20;;
31910;SDS011;18457;52.432;16.914;2023-05-21T09:06:48;7.60;;;4.70;;
31910;SDS011;18457;52.432;16.914;2023-05-21T09:09:30;8.50;;;5.50;;
31910;SDS011;18457;52.432;16.914;2023-05-21T09:12:04;7.30;;;4.90;;
31910;SDS011;18457;52.432;16.914;2023-05-21T09:14:37;8.00;;;4.60;;
31910;SDS011;18457;52.432;16.914;2023-05-21T09:17:15;4.90;;;4.40;;
31910;SDS011;18457;52.432;16.914;2023-05-21T09:20:04;10.60;;;4.10;;
31910;SDS011;18457;52.432;16.914;2023-05-21T09:22:45;9.60;;;4.30;;
31910;SDS011;18457;52.432;16.914;2023-05-21T09:25:19;12.50;;;4.70;;
31910;SDS011;18457;52.432;16.914;2023-05-21T09:27:53;7.40;;;4.60;;
31910;SDS011;18457;52.432;16.914;2023-05-21T09:30:26;8.20;;;5.30;;
31910;SDS011;18457;52.432;16.914;2023-05-21T09:33:02;8.80;;;5.10;;
31910;SDS011;18457;52.432;16.914;2023-05-21T09:35:34;12.10;;;5.20;;
31910;SDS011;18457;52.432;16.914;2023-05-21T09:38:08;9.40;;;5.50;;
31910;SDS011;18457;52.432;16.914;2023-05-21T09:40:43;29.90;;;6.50;;
31910;SDS011;18457;52.432;16.914;2023-05-21T09:43:16;12.70;;;5.10;;
31910;SDS011;18457;52.432;16.914;2023-05-21T09:45:50;7.60;;;4.90;;
31910;SDS011;18457;52.432;16.914;2023-05-21T09:48:33;12.30;;;5.00;;
31910;SDS011;18457;52.432;16.914;2023-05-21T09:51:08;8.80;;;5.10;;
31910;SDS011;18457;52.432;16.914;2023-05-21T09:53:44;8.20;;;4.20;;
31910;SDS011;18457;52.432;16.914;2023-05-21T09:56:21;4.70;;;4.20;;
31910;SDS011;18457;52.432;16.914;2023-05-21T09:58:54;7.40;;;4.50;;
31910;SDS011;18457;52.432;16.914;2023-05-21T10:01:29;7.40;;;4.60;;
31910;SDS011;18457;52.432;16.914;2023-05-21T10:04:03;11.60;;;4.60;;
31910;SDS011;18457;52.432;16.914;2023-05-21T10:06:39;26.10;;;7.50;;
31910;SDS011;18457;52.432;16.914;2023-05-21T10:09:13;7.70;;;5.20;;
31910;SDS011;18457;52.432;16.914;2023-05-21T10:11:48;9.20;;;4.70;;
31910;SDS011;18457;52.432;16.914;2023-05-21T10:14:23;6.80;;;5.20;;
31910;SDS011;18457;52.432;16.914;2023-05-21T10:16:59;17.30;;;5.50;;
31910;SDS011;18457;52.432;16.914;2023-05-21T10:19:32;10.60;;;5.80;;
31910;SDS011;18457;52.432;16.914;2023-05-21T10:22:05;9.80;;;4.80;;
31910;SDS011;18457;52.432;16.914;2023-05-21T10:24:38;12.50;;;4.50;;
31910;SDS011;18457;52.432;16.914;2023-05-21T10:27:12;9.20;;;5.40;;
31910;SDS011;18457;52.432;16.914;2023-05-21T10:29:45;6.50;;;4.30;;
31910;SDS011;18457;52.432;16.914;2023-05-21T10:32:19;9.30;;;4.90;;
31910;SDS011;18457;52.432;16.914;2023-05-21T10:34:53;6.30;;;4.80;;
31910;SDS011;18457;52.432;16.914;2023-05-21T10:37:29;9.40;;;4.80;;
31910;SDS011;18457;52.432;16.914;2023-05-21T10:40:01;5.90;;;5.30;;
31910;SDS011;18457;52.432;16.914;2023-05-21T10:45:46;8.10;;;5.00;;
31910;SDS011;18457;52.432;16.914;2023-05-21T10:48:36;7.20;;;5.10;;
31910;SDS011;18457;52.432;16.914;2023-05-21T10:51:27;7.60;;;4.70;;
31910;SDS011;18457;52.432;16.914;2023-05-21T10:54:19;8.20;;;4.80;;
31910;SDS011;18457;52.432;16.914;2023-05-21T10:57:13;10.00;;;4.90;;
31910;SDS011;18457;52.432;16.914;2023-05-21T10:59:56;6.90;;;4.80;;
31910;SDS011;18457;52.432;16.914;2023-05-21T11:02:29;14.50;;;4.90;;
31910;SDS011;18457;52.432;16.914;2023-05-21T11:05:02;8.70;;;5.30;;
31910;SDS011;18457;52.432;16.914;2023-05-21T11:10:34;12.40;;;4.90;;
31910;SDS011;18457;52.432;16.914;2023-05-21T11:13:12;8.80;;;5.10;;
31910;SDS011;18457;52.432;16.914;2023-05-21T11:18:59;10.30;;;4.40;;
31910;SDS011;18457;52.432;16.914;2023-05-21T11:21:33;9.30;;;5.00;;
31910;SDS011;18457;52.432;16.914;2023-05-21T11:24:18;18.60;;;5.70;;
31910;SDS011;18457;52.432;16.914;2023-05-21T11:27:00;7.00;;;5.00;;
31910;SDS011;18457;52.432;16.914;2023-05-21T11:29:37;20.80;;;7.40;;
31910;SDS011;18457;52.432;16.914;2023-05-21T11:32:11;14.90;;;5.00;;
31910;SDS011;18457;52.432;16.914;2023-05-21T11:34:45;12.40;;;5.20;;
31910;SDS011;18457;52.432;16.914;2023-05-21T11:37:26;5.20;;;4.70;;
31910;SDS011;18457;52.432;16.914;2023-05-21T11:42:50;5.80;;;5.00;;
31910;SDS011;18457;52.432;16.914;2023-05-21T11:45:27;22.10;;;5.90;;
31910;SDS011;18457;52.432;16.914;2023-05-21T11:48:00;7.30;;;5.40;;
31910;SDS011;18457;52.432;16.914;2023-05-21T11:50:34;12.80;;;5.50;;
31910;SDS011;18457;52.432;16.914;2023-05-21T11:53:07;5.90;;;4.50;;
31910;SDS011;18457;52.432;16.914;2023-05-21T11:55:40;6.60;;;4.40;;
31910;SDS011;18457;52.432;16.914;2023-05-21T11:58:17;11.40;;;5.20;;
31910;SDS011;18457;52.432;16.914;2023-05-21T12:00:50;7.50;;;4.90;;
31910;SDS011;18457;52.432;16.914;2023-05-21T12:03:22;8.30;;;5.20;;
31910;SDS011;18457;52.432;16.914;2023-05-21T12:06:02;24.40;;;5.40;;
31910;SDS011;18457;52.432;16.914;2023-05-21T12:08:36;11.20;;;4.90;;
31910;SDS011;18457;52.432;16.914;2023-05-21T12:11:08;9.00;;;5.10;;
31910;SDS011;18457;52.432;16.914;2023-05-21T12:13:40;5.90;;;4.60;;
31910;SDS011;18457;52.432;16.914;2023-05-21T12:16:12;8.30;;;5.10;;
31910;SDS011;18457;52.432;16.914;2023-05-21T12:18:43;5.30;;;4.70;;
31910;SDS011;18457;52.432;16.914;2023-05-21T12:21:15;5.60;;;4.60;;
31910;SDS011;18457;52.432;16.914;2023-05-21T12:23:47;5.60;;;5.10;;
31910;SDS011;18457;52.432;16.914;2023-05-21T12:26:19;5.90;;;4.60;;
31910;SDS011;18457;52.432;16.914;2023-05-21T12:28:53;11.70;;;4.90;;
31910;SDS011;18457;52.432;16.914;2023-05-21T12:31:25;6.60;;;4.60;;
31910;SDS011;18457;52.432;16.914;2023-05-21T12:34:00;8.50;;;5.00;;
31910;SDS011;18457;52.432;16.914;2023-05-21T12:36:33;5.70;;;4.70;;
31910;SDS011;18457;52.432;16.914;2023-05-21T12:39:06;6.40;;;4.60;;
31910;SDS011;18457;52.432;16.914;2023-05-21T12:41:39;4.90;;;4.40;;
31910;SDS011;18457;52.432;16.914;2023-05-21T12:44:12;6.40;;;4.80;;
31910;SDS011;18457;52.432;16.914;2023-05-21T12:46:44;6.80;;;4.40;;
31910;SDS011;18457;52.432;16.914;2023-05-21T12:52:06;7.20;;;4.60;;
31910;SDS011;18457;52.432;16.914;2023-05-21T12:54:40;5.50;;;4.70;;
31910;SDS011;18457;52.432;16.914;2023-05-21T12:57:15;5.50;;;4.10;;
31910;SDS011;18457;52.432;16.914;2023-05-21T12:59:48;5.60;;;4.60;;
31910;SDS011;18457;52.432;16.914;2023-05-21T13:02:21;5.20;;;4.60;;
31910;SDS011;18457;52.432;16.914;2023-05-21T13:04:56;8.60;;;4.20;;
31910;SDS011;18457;52.432;16.914;2023-05-21T13:07:30;5.30;;;4.50;;
31910;SDS011;18457;52.432;16.914;2023-05-21T13:10:04;9.80;;;4.50;;
31910;SDS011;18457;52.432;16.914;2023-05-21T13:12:36;6.40;;;4.40;;
31910;SDS011;18457;52.432;16.914;2023-05-21T13:15:12;5.90;;;4.80;;
31910;SDS011;18457;52.432;16.914;2023-05-21T13:17:44;6.70;;;4.60;;
31910;SDS011;18457;52.432;16.914;2023-05-21T13:20:18;7.30;;;4.80;;
31910;SDS011;18457;52.432;16.914;2023-05-21T13:22:54;10.00;;;5.00;;
31910;SDS011;18457;52.432;16.914;2023-05-21T13:25:26;5.60;;;5.00;;
31910;SDS011;18457;52.432;16.914;2023-05-21T13:27:59;9.00;;;4.50;;
31910;SDS011;18457;52.432;16.914;2023-05-21T13:30:33;11.40;;;5.10;;
31910;SDS011;18457;52.432;16.914;2023-05-21T13:33:05;11.00;;;4.90;;
31910;SDS011;18457;52.432;16.914;2023-05-21T13:35:37;9.30;;;4.80;;
31910;SDS011;18457;52.432;16.914;2023-05-21T13:38:09;6.60;;;4.90;;
31910;SDS011;18457;52.432;16.914;2023-05-21T13:40:41;7.40;;;4.10;;
31910;SDS011;18457;52.432;16.914;2023-05-21T13:43:13;6.70;;;4.40;;
31910;SDS011;18457;52.432;16.914;2023-05-21T13:45:46;28.00;;;5.40;;
31910;SDS011;18457;52.432;16.914;2023-05-21T13:48:19;20.60;;;4.90;;
31910;SDS011;18457;52.432;16.914;2023-05-21T13:50:51;5.40;;;4.20;;
31910;SDS011;18457;52.432;16.914;2023-05-21T13:53:23;9.80;;;4.40;;
31910;SDS011;18457;52.432;16.914;2023-05-21T13:55:55;8.20;;;4.40;;
31910;SDS011;18457;52.432;16.914;2023-05-21T13:58:27;5.50;;;4.00;;
31910;SDS011;18457;52.432;16.914;2023-05-21T14:01:02;11.10;;;4.40;;
31910;SDS011;18457;52.432;16.914;2023-05-21T14:03:34;4.80;;;4.10;;
31910;SDS011;18457;52.432;16.914;2023-05-21T14:06:06;13.70;;;4.20;;
31910;SDS011;18457;52.432;16.914;2023-05-21T14:08:38;10.20;;;4.80;;
31910;SDS011;18457;52.432;16.914;2023-05-21T14:11:10;7.40;;;4.30;;
31910;SDS011;18457;52.432;16.914;2023-05-21T14:13:42;8.60;;;4.10;;
31910;SDS011;18457;52.432;16.914;2023-05-21T14:16:13;6.50;;;4.20;;
31910;SDS011;18457;52.432;16.914;2023-05-21T14:18:46;13.50;;;4.90;;
31910;SDS011;18457;52.432;16.914;2023-05-21T14:21:18;6.10;;;4.20;;
31910;SDS011;18457;52.432;16.914;2023-05-21T14:23:50;5.70;;;3.90;;
31910;SDS011;18457;52.432;16.914;2023-05-21T14:26:22;22.10;;;4.70;;
31910;SDS011;18457;52.432;16.914;2023-05-21T14:28:54;3.90;;;3.50;;
31910;SDS011;18457;52.432;16.914;2023-05-21T14:31:26;5.40;;;3.90;;
31910;SDS011;18457;52.432;16.914;2023-05-21T14:36:31;5.10;;;4.60;;
31910;SDS011;18457;52.432;16.914;2023-05-21T14:39:04;7.00;;;4.40;;
31910;SDS011;18457;52.432;16.914;2023-05-21T14:41:36;8.80;;;4.60;;
31910;SDS011;18457;52.432;16.914;2023-05-21T14:44:08;5.10;;;4.10;;
31910;SDS011;18457;52.432;16.914;2023-05-21T14:46:40;6.80;;;3.90;;
31910;SDS011;18457;52.432;16.914;2023-05-21T14:49:12;10.90;;;4.80;;
31910;SDS011;18457;52.432;16.914;2023-05-21T14:51:44;8.50;;;4.50;;
31910;SDS011;18457;52.432;16.914;2023-05-21T14:54:16;6.60;;;4.10;;
31910;SDS011;18457;52.432;16.914;2023-05-21T14:56:49;10.60;;;4.70;;
31910;SDS011;18457;52.432;16.914;2023-05-21T14:59:22;14.00;;;4.30;;
31910;SDS011;18457;52.432;16.914;2023-05-21T15:01:53;10.90;;;4.10;;
31910;SDS011;18457;52.432;16.914;2023-05-21T15:04:25;8.40;;;4.60;;
31910;SDS011;18457;52.432;16.914;2023-05-21T15:06:57;6.70;;;4.20;;
31910;SDS011;18457;52.432;16.914;2023-05-21T15:09:29;8.00;;;3.90;;
31910;SDS011;18457;52.432;16.914;2023-05-21T15:12:01;4.70;;;4.00;;
31910;SDS011;18457;52.432;16.914;2023-05-21T15:14:33;7.00;;;3.90;;
31910;SDS011;18457;52.432;16.914;2023-05-21T15:17:05;8.80;;;3.80;;
31910;SDS011;18457;52.432;16.914;2023-05-21T15:19:37;8.60;;;4.30;;
31910;SDS011;18457;52.432;16.914;2023-05-21T15:22:09;6.60;;;3.80;;
31910;SDS011;18457;52.432;16.914;2023-05-21T15:24:41;4.50;;;3.80;;
31910;SDS011;18457;52.432;16.914;2023-05-21T15:29:43;4.50;;;3.90;;
31910;SDS011;18457;52.432;16.914;2023-05-21T15:32:15;6.50;;;3.70;;
31910;SDS011;18457;52.432;16.914;2023-05-21T15:34:48;23.80;;;7.90;;
31910;SDS011;18457;52.432;16.914;2023-05-21T15:37:20;7.90;;;3.40;;
31910;SDS011;18457;52.432;16.914;2023-05-21T15:39:52;5.50;;;3.70;;
31910;SDS011;18457;52.432;16.914;2023-05-21T15:42:24;7.00;;;3.50;;
31910;SDS011;18457;52.432;16.914;2023-05-21T15:44:59;4.00;;;3.50;;